Time;durP1;ratioP1;P1;durP2;ratioP2;P2;SDS_P1;SDS_P2;PMS_P1;PMS_P2;Temp;Humidity;BMP_temperature;BMP_pressure;BME280_temperature;BME280_humidity;BME280_pressure;Samples;Min_cycle;Max_cycle;Signal;HPM_P1;HPM_P2
2022/11/29 00:01:29;;;;;;;27.13;16.57;;;8.40;93.50;;;;;;5036198;28;20902;-74
2022/11/29 00:03:55;;;;;;;27.83;15.10;;;8.50;93.70;;;;;;5035907;28;20431;-74
2022/11/29 00:06:26;;;;;;;26.80;15.63;;;8.50;93.50;;;;;;5036106;28;20439;-73
2022/11/29 00:08:53;;;;;;;24.67;15.70;;;8.50;93.50;;;;;;5036437;28;20471;-73
2022/11/29 00:14:09;;;;;;;24.30;15.77;;;8.50;93.50;;;;;;5031037;28;20779;-74
2022/11/29 00:16:35;;;;;;;28.20;15.67;;;8.50;93.60;;;;;;5040520;28;20428;-74
2022/11/29 00:19:01;;;;;;;26.67;15.67;;;8.50;93.50;;;;;;5048655;28;20875;-74
2022/11/29 00:21:27;;;;;;;25.57;15.13;;;8.50;93.40;;;;;;5046085;28;20456;-74
2022/11/29 00:23:52;;;;;;;26.30;15.07;;;8.50;93.40;;;;;;5038726;28;20431;-74
2022/11/29 00:26:18;;;;;;;26.60;13.73;;;8.50;93.40;;;;;;5037160;28;20224;-74
2022/11/29 00:28:44;;;;;;;29.07;15.10;;;8.50;93.40;;;;;;5037716;28;20205;-74
2022/11/29 00:31:17;;;;;;;22.07;13.67;;;8.50;93.50;;;;;;5035379;28;20459;-74
2022/11/29 00:33:42;;;;;;;30.10;16.23;;;8.50;93.50;;;;;;5031484;28;20276;-73
2022/11/29 00:36:09;;;;;;;20.23;13.17;;;8.50;93.40;;;;;;5031371;28;20554;-74
2022/11/29 00:38:34;;;;;;;24.10;14.67;;;8.50;93.40;;;;;;5038716;28;20235;-73
2022/11/29 00:41:00;;;;;;;24.57;13.93;;;8.60;93.40;;;;;;5040254;28;20519;-74
2022/11/29 00:43:25;;;;;;;26.00;14.10;;;8.60;93.40;;;;;;5049751;28;20243;-74
2022/11/29 00:45:51;;;;;;;28.70;14.40;;;8.50;93.50;;;;;;5049890;28;20209;-74
2022/11/29 00:48:16;;;;;;;32.00;18.33;;;8.60;93.60;;;;;;5048092;28;20291;-73
2022/11/29 00:50:42;;;;;;;29.43;16.30;;;8.50;93.60;;;;;;5046063;28;20224;-73
2022/11/29 00:53:08;;;;;;;24.27;14.53;;;8.40;93.60;;;;;;5043440;28;20197;-74
2022/11/29 00:55:33;;;;;;;28.63;17.53;;;8.30;93.80;;;;;;5033550;28;20274;-75
2022/11/29 00:57:59;;;;;;;26.60;15.60;;;8.40;93.90;;;;;;5032344;28;20188;-74
2022/11/29 01:00:24;;;;;;;28.50;16.47;;;8.30;93.90;;;;;;5029292;28;20216;-77
2022/11/29 01:02:50;;;;;;;24.90;14.60;;;8.30;94.00;;;;;;5032529;28;20177;-74
2022/11/29 01:05:15;;;;;;;23.87;13.60;;;8.30;94.00;;;;;;5030152;28;20664;-73
2022/11/29 01:07:41;;;;;;;27.27;16.10;;;8.40;94.10;;;;;;5032651;28;20185;-75
2022/11/29 01:10:07;;;;;;;23.47;14.13;;;8.40;94.10;;;;;;5031300;28;20220;-73
2022/11/29 01:12:37;;;;;;;24.20;14.70;;;8.40;94.00;;;;;;5030953;28;20185;-76
2022/11/29 01:15:06;;;;;;;25.77;14.17;;;8.40;94.00;;;;;;5032152;28;20423;-76
2022/11/29 01:17:34;;;;;;;24.17;14.57;;;8.50;94.10;;;;;;5031628;28;20458;-76
2022/11/29 01:20:00;;;;;;;26.67;13.80;;;8.50;94.00;;;;;;5030989;28;20438;-76
2022/11/29 01:22:26;;;;;;;20.17;13.10;;;8.50;93.90;;;;;;5031994;28;20451;-72
2022/11/29 01:24:52;;;;;;;22.07;12.60;;;8.50;93.80;;;;;;5031060;28;20185;-74
2022/11/29 01:27:17;;;;;;;26.00;13.30;;;8.60;93.80;;;;;;5030587;28;20771;-75
2022/11/29 01:29:43;;;;;;;24.60;15.20;;;8.60;93.70;;;;;;5032963;28;20704;-75
2022/11/29 01:32:11;;;;;;;21.17;12.00;;;8.60;93.70;;;;;;5033210;28;20436;-74
2022/11/29 01:34:38;;;;;;;20.90;12.87;;;8.60;93.60;;;;;;5036312;28;20216;-74
2022/11/29 01:37:03;;;;;;;24.13;13.30;;;8.50;93.50;;;;;;5032155;28;20412;-75
2022/11/29 01:39:29;;;;;;;22.77;13.93;;;8.50;93.60;;;;;;5025205;28;20447;-74
2022/11/29 01:41:55;;;;;;;22.73;13.53;;;8.50;93.60;;;;;;5028321;28;20205;-74
2022/11/29 01:44:20;;;;;;;22.57;13.80;;;8.60;93.70;;;;;;5029130;28;20196;-72
2022/11/29 01:46:47;;;;;;;28.30;15.00;;;8.60;93.70;;;;;;5030923;28;20211;-75
2022/11/29 01:49:21;;;;;;;22.00;13.30;;;8.60;93.50;;;;;;5031591;28;20255;-74
2022/11/29 01:51:51;;;;;;;22.97;12.97;;;8.60;93.40;;;;;;5029978;28;20470;-73
2022/11/29 01:54:18;;;;;;;25.90;14.97;;;8.50;93.30;;;;;;5027976;28;20412;-75
2022/11/29 01:56:46;;;;;;;23.30;13.70;;;8.50;93.20;;;;;;5030758;28;20503;-74
2022/11/29 01:59:14;;;;;;;26.47;13.37;;;8.50;93.20;;;;;;5031823;28;20546;-75
2022/11/29 02:01:40;;;;;;;23.00;13.57;;;8.40;93.10;;;;;;5027010;28;20554;-76
2022/11/29 02:04:06;;;;;;;22.17;13.17;;;8.40;93.30;;;;;;5030971;28;20527;-74
2022/11/29 02:06:33;;;;;;;18.37;12.73;;;8.40;93.40;;;;;;5030189;28;20185;-75
2022/11/29 02:08:59;;;;;;;20.30;11.97;;;8.40;93.30;;;;;;5031162;28;20538;-76
2022/11/29 02:11:43;;;;;;;20.60;12.13;;;8.30;93.30;;;;;;5025193;28;20916;-75
2022/11/29 02:14:30;;;;;;;23.47;14.43;;;8.30;93.50;;;;;;5029831;28;20215;-75
2022/11/29 02:17:11;;;;;;;25.97;15.80;;;8.20;93.60;;;;;;5025322;28;20416;-76
2022/11/29 02:20:13;;;;;;;25.90;15.40;;;8.20;93.70;;;;;;5032302;28;20415;-75
2022/11/29 02:22:57;;;;;;;24.43;13.67;;;8.10;94.00;;;;;;5023960;28;20465;-73
2022/11/29 02:25:43;;;;;;;20.80;13.43;;;8.20;94.20;;;;;;5025956;28;20935;-76
2022/11/29 02:28:36;;;;;;;21.57;13.27;;;8.20;94.30;;;;;;5029237;28;20439;-76
2022/11/29 02:31:24;;;;;;;19.50;13.03;;;8.20;94.40;;;;;;5026611;28;20467;-75
2022/11/29 02:34:01;;;;;;;20.20;12.47;;;8.10;94.40;;;;;;5030721;28;20408;-75
2022/11/29 02:36:30;;;;;;;20.93;12.83;;;8.10;94.40;;;;;;5028050;28;20411;-76
2022/11/29 02:39:43;;;;;;;24.60;13.70;;;8.10;94.60;;;;;;5030109;28;20434;-76
2022/11/29 02:42:49;;;;;;;22.13;12.87;;;8.20;94.70;;;;;;5030319;28;20997;-75
2022/11/29 02:45:29;;;;;;;24.70;12.60;;;8.20;94.70;;;;;;5034093;28;20447;-75
2022/11/29 02:48:13;;;;;;;21.57;11.70;;;8.20;94.70;;;;;;5047703;28;20921;-75
2022/11/29 02:50:48;;;;;;;20.63;12.67;;;8.30;94.70;;;;;;5049374;28;21001;-76
2022/11/29 02:53:33;;;;;;;21.33;11.13;;;8.30;94.70;;;;;;5051080;28;20412;-73
2022/11/29 02:56:22;;;;;;;20.77;12.20;;;8.40;94.70;;;;;;5040056;28;20507;-75
2022/11/29 02:59:11;;;;;;;20.20;11.60;;;8.40;94.60;;;;;;5029439;28;20515;-75
2022/11/29 03:01:56;;;;;;;19.07;11.33;;;8.50;94.60;;;;;;5031329;28;20468;-76
2022/11/29 03:05:00;;;;;;;19.27;11.70;;;8.50;94.50;;;;;;5033646;28;20415;-75
2022/11/29 03:07:40;;;;;;;16.43;10.50;;;8.50;94.50;;;;;;5028811;28;20415;-74
2022/11/29 03:10:30;;;;;;;18.43;9.17;;;8.50;94.30;;;;;;5043793;28;20607;-75
2022/11/29 03:12:57;;;;;;;18.13;10.50;;;8.50;94.10;;;;;;5031986;28;20418;-76
2022/11/29 03:15:32;;;;;;;13.27;8.67;;;8.50;93.90;;;;;;5028435;28;20422;-75
2022/11/29 03:18:06;;;;;;;16.87;11.10;;;8.50;93.90;;;;;;5031905;28;20423;-74
2022/11/29 03:20:53;;;;;;;12.63;6.77;;;8.50;93.80;;;;;;5028461;28;20498;-73
2022/11/29 03:23:32;;;;;;;15.90;9.00;;;8.50;93.70;;;;;;5030504;28;20451;-77
2022/11/29 03:26:09;;;;;;;19.80;9.30;;;8.50;93.70;;;;;;5031656;28;20481;-75
2022/11/29 03:28:59;;;;;;;13.80;8.80;;;8.50;93.70;;;;;;5029108;28;21075;-75
2022/11/29 03:31:36;;;;;;;13.50;8.57;;;8.60;93.70;;;;;;5029054;28;20450;-73
2022/11/29 03:34:07;;;;;;;14.37;9.30;;;8.60;93.50;;;;;;5030741;28;20415;-74
2022/11/29 03:36:54;;;;;;;12.70;7.97;;;8.70;93.50;;;;;;5034854;28;20462;-75
2022/11/29 03:39:29;;;;;;;0.40;0.30;;;8.60;93.30;;;;;;5035251;28;20420;-74
2022/11/29 03:42:01;;;;;;;1.50;1.40;;;8.60;93.30;;;;;;5030921;28;20465;-76
2022/11/29 03:44:40;;;;;;;8.03;5.90;;;8.60;93.20;;;;;;5031877;28;20455;-76
2022/11/29 03:47:12;;;;;;;12.93;7.53;;;8.60;93.20;;;;;;5033456;28;20453;-73
2022/11/29 03:49:50;;;;;;;8.60;6.87;;;8.50;93.10;;;;;;5034078;28;20459;-75
2022/11/29 03:52:30;;;;;;;11.53;8.50;;;8.50;93.20;;;;;;5035419;28;20427;-74
2022/11/29 03:55:10;;;;;;;13.63;9.00;;;8.50;93.30;;;;;;5033823;28;20431;-76
2022/11/29 03:58:01;;;;;;;13.30;8.80;;;8.50;93.50;;;;;;5027939;28;20514;-76
2022/11/29 04:00:45;;;;;;;10.60;7.80;;;8.50;93.50;;;;;;5030489;28;20528;-75
2022/11/29 04:03:26;;;;;;;9.37;7.37;;;8.50;93.50;;;;;;5030982;28;20415;-74
2022/11/29 04:06:19;;;;;;;16.27;9.83;;;8.40;93.60;;;;;;5038545;28;20416;-75
2022/11/29 04:09:03;;;;;;;14.30;9.10;;;8.40;93.80;;;;;;5044055;28;20468;-74
2022/11/29 04:11:57;;;;;;;17.47;10.80;;;8.50;93.80;;;;;;5040264;28;20542;-73
2022/11/29 04:14:37;;;;;;;16.60;11.30;;;8.50;93.80;;;;;;5045898;28;20428;-76
2022/11/29 04:17:30;;;;;;;15.40;9.00;;;8.40;93.80;;;;;;5040584;28;20459;-75
2022/11/29 04:20:37;;;;;;;15.70;8.53;;;8.50;93.90;;;;;;5030154;28;20424;-72
2022/11/29 04:23:30;;;;;;;15.87;9.63;;;8.50;93.80;;;;;;5018416;28;20432;-75
2022/11/29 04:26:26;;;;;;;12.73;8.33;;;8.50;93.80;;;;;;5068849;28;20515;-75
2022/11/29 04:29:25;;;;;;;12.97;8.20;;;8.50;93.80;;;;;;5036965;28;21047;-74
2022/11/29 04:32:06;;;;;;;18.90;9.83;;;8.50;93.70;;;;;;5033659;28;20478;-75
2022/11/29 04:34:47;;;;;;;14.17;8.70;;;8.50;93.80;;;;;;5034665;28;20443;-75
2022/11/29 04:37:23;;;;;;;12.13;8.70;;;8.50;93.80;;;;;;5036259;28;20798;-74
2022/11/29 04:40:08;;;;;;;16.87;9.63;;;8.50;93.80;;;;;;5033205;28;20435;-72
2022/11/29 04:43:12;;;;;;;13.23;8.10;;;8.50;93.70;;;;;;5045061;28;20948;-76
2022/11/29 04:46:04;;;;;;;14.57;9.40;;;8.50;93.70;;;;;;5028017;28;20450;-75
2022/11/29 04:48:59;;;;;;;11.20;7.60;;;8.40;93.60;;;;;;5024450;28;21176;-74
2022/11/29 04:51:42;;;;;;;13.53;7.90;;;8.40;93.60;;;;;;5032188;28;20452;-76
2022/11/29 04:54:46;;;;;;;12.63;8.00;;;8.40;93.50;;;;;;5026761;28;20415;-77
2022/11/29 04:57:32;;;;;;;14.40;8.30;;;8.50;93.50;;;;;;5030540;28;20419;-76
2022/11/29 05:00:11;;;;;;;11.70;7.37;;;8.40;93.50;;;;;;5028824;28;20416;-76
2022/11/29 05:02:43;;;;;;;12.00;8.50;;;8.40;93.60;;;;;;5030298;28;20910;-76
2022/11/29 05:05:30;;;;;;;11.33;7.33;;;8.40;93.70;;;;;;5034094;28;20463;-75
2022/11/29 05:08:29;;;;;;;12.07;7.20;;;8.40;93.70;;;;;;5033191;28;20914;-75
2022/11/29 05:11:17;;;;;;;13.90;6.60;;;8.50;93.60;;;;;;5054176;28;20471;-76
2022/11/29 05:13:48;;;;;;;11.80;7.63;;;8.50;93.50;;;;;;5030813;28;20805;-76
2022/11/29 05:16:35;;;;;;;10.80;7.27;;;8.50;93.40;;;;;;5032021;28;20836;-75
2022/11/29 05:19:47;;;;;;;8.13;5.50;;;8.40;93.30;;;;;;5027247;28;20428;-75
2022/11/29 05:22:37;;;;;;;8.73;5.60;;;8.50;93.50;;;;;;5035658;28;20570;-75
2022/11/29 05:25:31;;;;;;;9.87;5.07;;;8.40;93.40;;;;;;5031097;28;20535;-75
2022/11/29 05:28:24;;;;;;;6.83;4.60;;;8.30;93.40;;;;;;5030558;28;20439;-74
2022/11/29 05:31:03;;;;;;;10.07;4.77;;;8.40;93.60;;;;;;5020951;28;20479;-74
2022/11/29 05:33:56;;;;;;;11.87;4.87;;;8.30;93.50;;;;;;5032641;28;20431;-72
2022/11/29 05:36:59;;;;;;;8.27;4.83;;;8.10;93.80;;;;;;5033372;28;20470;-75
2022/11/29 05:39:46;;;;;;;9.33;6.00;;;8.30;94.10;;;;;;5012806;28;20435;-75
2022/11/29 05:42:11;;;;;;;6.87;4.93;;;8.40;94.10;;;;;;5039874;28;20471;-73
2022/11/29 05:45:07;;;;;;;8.10;5.70;;;8.40;94.10;;;;;;5025983;28;20455;-75
2022/11/29 05:47:45;;;;;;;12.17;6.73;;;8.50;94.10;;;;;;5034821;28;20353;-72
2022/11/29 05:50:31;;;;;;;9.50;5.60;;;8.50;93.80;;;;;;5027111;28;20483;-72
2022/11/29 05:53:12;;;;;;;9.83;6.40;;;8.60;93.70;;;;;;5023364;28;20420;-74
2022/11/29 05:55:54;;;;;;;15.50;7.60;;;8.60;93.60;;;;;;5027384;28;20988;-72
2022/11/29 05:58:48;;;;;;;7.50;5.00;;;8.50;93.50;;;;;;5030534;28;20510;-72
2022/11/29 06:01:17;;;;;;;6.87;5.00;;;8.40;93.60;;;;;;5023343;28;20477;-72
2022/11/29 06:04:00;;;;;;;8.70;5.37;;;8.30;93.80;;;;;;5028901;28;20466;-73
2022/11/29 06:06:33;;;;;;;10.93;5.47;;;8.30;93.90;;;;;;5030563;28;20508;-73
2022/11/29 06:09:15;;;;;;;8.97;5.50;;;8.30;94.10;;;;;;5030770;28;20455;-73
2022/11/29 06:11:45;;;;;;;9.23;5.57;;;8.30;94.10;;;;;;5028600;28;20459;-74
2022/11/29 06:14:29;;;;;;;9.53;6.03;;;8.30;94.20;;;;;;5023913;28;20432;-74
2022/11/29 06:17:24;;;;;;;9.90;6.13;;;8.30;94.30;;;;;;5026571;28;20522;-74
2022/11/29 06:20:13;;;;;;;10.97;5.50;;;8.30;94.30;;;;;;5028453;28;21006;-72
2022/11/29 06:22:47;;;;;;;10.70;6.23;;;8.30;94.40;;;;;;5028447;28;21029;-73
2022/11/29 06:25:22;;;;;;;8.63;5.30;;;8.30;94.50;;;;;;5030277;28;20800;-74
2022/11/29 06:27:51;;;;;;;9.23;5.60;;;8.30;94.50;;;;;;5029790;28;20775;-74
2022/11/29 06:30:22;;;;;;;9.90;6.17;;;8.40;94.50;;;;;;5027562;28;20495;-73
2022/11/29 06:33:01;;;;;;;8.80;5.17;;;8.10;94.20;;;;;;5029812;28;20831;-75
2022/11/29 06:35:45;;;;;;;10.80;5.67;;;8.10;94.30;;;;;;5031537;28;20428;-74
2022/11/29 06:38:26;;;;;;;9.70;5.43;;;8.10;94.40;;;;;;5033667;28;20416;-72
2022/11/29 06:40:54;;;;;;;8.13;5.13;;;8.20;94.40;;;;;;5040454;28;20566;-74
2022/11/29 06:43:20;;;;;;;12.50;5.77;;;8.10;94.10;;;;;;5042384;28;20420;-75
2022/11/29 06:45:52;;;;;;;8.90;6.00;;;8.10;94.10;;;;;;5043123;28;20554;-72
2022/11/29 06:48:25;;;;;;;10.50;6.10;;;8.00;94.00;;;;;;5041956;28;20443;-72
2022/11/29 06:51:06;;;;;;;12.47;6.00;;;8.00;94.10;;;;;;5038497;28;20483;-75
2022/11/29 06:53:42;;;;;;;11.37;5.80;;;8.10;94.20;;;;;;5038312;28;20439;-74
2022/11/29 06:56:23;;;;;;;9.93;5.90;;;8.00;94.10;;;;;;5043222;28;20419;-73
2022/11/29 06:59:04;;;;;;;12.90;7.10;;;8.00;94.10;;;;;;5037878;28;20420;-72
2022/11/29 07:01:49;;;;;;;12.60;7.50;;;8.10;94.20;;;;;;5034410;28;20474;-74
2022/11/29 07:04:47;;;;;;;9.60;6.00;;;8.10;94.20;;;;;;5038800;28;20420;-74
2022/11/29 07:07:22;;;;;;;14.23;6.20;;;8.10;94.20;;;;;;5032528;28;20419;-75
2022/11/29 07:09:51;;;;;;;11.20;6.60;;;8.00;94.20;;;;;;5038883;28;20467;-74
2022/11/29 07:12:18;;;;;;;14.27;7.13;;;8.00;94.20;;;;;;5035802;28;20439;-74
2022/11/29 07:14:44;;;;;;;13.57;6.50;;;8.00;94.30;;;;;;5038146;28;20438;-74
2022/11/29 07:17:31;;;;;;;11.53;6.20;;;8.00;94.30;;;;;;5037919;28;20427;-73
2022/11/29 07:20:14;;;;;;;12.43;6.93;;;7.90;94.40;;;;;;5040116;28;20969;-72
2022/11/29 07:22:59;;;;;;;12.73;6.67;;;7.90;94.50;;;;;;5039575;28;20435;-74
2022/11/29 07:25:33;;;;;;;12.23;6.90;;;8.00;94.50;;;;;;5041673;28;20423;-75
2022/11/29 07:28:32;;;;;;;11.00;6.73;;;8.00;94.40;;;;;;5036830;28;20453;-74
2022/11/29 07:31:09;;;;;;;12.77;7.80;;;8.00;94.40;;;;;;5040731;28;20479;-73
2022/11/29 07:34:09;;;;;;;16.60;7.40;;;8.00;94.40;;;;;;5037733;28;20420;-74
2022/11/29 07:36:56;;;;;;;16.90;7.40;;;8.10;94.50;;;;;;5041012;28;20427;-71
2022/11/29 07:39:31;;;;;;;13.43;7.60;;;8.20;94.50;;;;;;5040941;28;20547;-74
2022/11/29 07:42:23;;;;;;;14.47;8.00;;;8.40;94.50;;;;;;5024618;28;20459;-73
2022/11/29 07:44:59;;;;;;;16.60;8.30;;;8.40;94.20;;;;;;5030462;28;20456;-74
2022/11/29 07:47:24;;;;;;;15.57;8.00;;;8.50;94.00;;;;;;5028884;28;20422;-73
2022/11/29 07:49:50;;;;;;;14.20;6.90;;;8.50;93.60;;;;;;5031943;28;20848;-74
2022/11/29 07:52:16;;;;;;;11.97;7.50;;;8.60;93.50;;;;;;5024928;28;20275;-73
2022/11/29 07:54:42;;;;;;;12.53;6.73;;;8.60;93.30;;;;;;5030174;28;20507;-74
2022/11/29 07:57:08;;;;;;;12.47;7.13;;;8.60;93.00;;;;;;5031825;28;20427;-74
2022/11/29 07:59:33;;;;;;;10.17;6.47;;;8.60;92.90;;;;;;5030185;28;20711;-73
2022/11/29 08:01:59;;;;;;;11.73;7.10;;;8.70;92.80;;;;;;5030736;28;20248;-74
2022/11/29 08:04:25;;;;;;;26.37;5.00;;;8.60;92.60;;;;;;5044449;28;20197;-73
2022/11/29 08:06:50;;;;;;;24.87;6.03;;;8.60;92.70;;;;;;5043540;28;20231;-74
2022/11/29 08:09:16;;;;;;;25.60;6.43;;;8.60;92.70;;;;;;5044428;28;20221;-74
2022/11/29 08:11:43;;;;;;;23.10;6.10;;;8.30;92.70;;;;;;5029126;28;20213;-75
2022/11/29 08:14:09;;;;;;;27.20;6.57;;;8.20;93.00;;;;;;5030137;28;21040;-74
2022/11/29 08:16:34;;;;;;;19.27;5.37;;;8.20;93.40;;;;;;5033480;28;20535;-74
2022/11/29 08:19:00;;;;;;;22.47;7.60;;;8.30;93.50;;;;;;5032784;28;20204;-73
2022/11/29 08:21:25;;;;;;;22.23;7.60;;;8.40;93.40;;;;;;5030196;28;20707;-73
2022/11/29 08:23:51;;;;;;;23.07;6.77;;;8.30;93.10;;;;;;5032098;28;20216;-75
2022/11/29 08:26:18;;;;;;;16.20;6.60;;;8.20;93.40;;;;;;5032603;28;20567;-74
2022/11/29 08:28:43;;;;;;;18.20;7.50;;;8.20;93.60;;;;;;5033056;28;20213;-73
2022/11/29 08:31:11;;;;;;;15.17;6.10;;;8.30;93.80;;;;;;5028541;28;20851;-74
2022/11/29 08:33:39;;;;;;;13.97;7.60;;;8.20;93.60;;;;;;5030461;28;20435;-73
2022/11/29 08:36:10;;;;;;;11.73;6.30;;;8.20;93.80;;;;;;5032762;28;20530;-74
2022/11/29 08:38:36;;;;;;;0.30;0.20;;;8.20;93.80;;;;;;5034188;28;20509;-73
2022/11/29 08:41:03;;;;;;;5.53;4.00;;;8.10;94.10;;;;;;5031635;28;20997;-74
2022/11/29 08:43:29;;;;;;;6.70;4.37;;;8.20;94.30;;;;;;5039981;28;20812;-74
2022/11/29 08:45:56;;;;;;;5.50;3.67;;;8.20;94.20;;;;;;5044891;28;20463;-73
2022/11/29 08:48:22;;;;;;;8.30;4.90;;;8.30;94.30;;;;;;5047438;28;20430;-72
2022/11/29 08:50:52;;;;;;;10.43;6.00;;;8.40;94.30;;;;;;5044815;28;20459;-73
2022/11/29 08:56:03;;;;;;;8.70;5.00;;;8.40;94.00;;;;;;5029449;28;20465;-73
2022/11/29 08:58:29;;;;;;;13.33;6.20;;;8.50;93.90;;;;;;5030770;28;20431;-74
2022/11/29 09:00:55;;;;;;;8.23;4.60;;;8.50;93.90;;;;;;5027008;28;20558;-75
2022/11/29 09:06:11;;;;;;;11.70;5.33;;;8.50;93.90;;;;;;5030984;28;20710;-72
2022/11/29 09:08:36;;;;;;;9.13;4.90;;;8.30;93.90;;;;;;5032766;28;20550;-74
2022/11/29 09:11:16;;;;;;;10.13;5.87;;;8.30;94.10;;;;;;5028954;28;20915;-76
2022/11/29 09:13:44;;;;;;;10.37;5.30;;;8.40;94.30;;;;;;5031903;28;20185;-72
2022/11/29 09:16:13;;;;;;;7.73;5.07;;;8.50;94.40;;;;;;5033446;28;20432;-74
2022/11/29 09:18:40;;;;;;;10.20;4.90;;;8.40;94.20;;;;;;5032823;28;20447;-74
2022/11/29 09:21:08;;;;;;;8.37;4.80;;;8.40;94.20;;;;;;5032437;28;20467;-74
2022/11/29 09:23:34;;;;;;;10.80;6.40;;;8.30;94.30;;;;;;5035531;28;20435;-74
2022/11/29 09:26:00;;;;;;;10.80;5.67;;;8.20;94.40;;;;;;5048971;28;20846;-74
2022/11/29 09:28:26;;;;;;;16.20;6.57;;;8.20;94.60;;;;;;5048098;28;20467;-72
2022/11/29 09:30:52;;;;;;;11.30;6.27;;;8.20;94.80;;;;;;5036776;28;20459;-73
2022/11/29 09:33:17;;;;;;;14.80;7.23;;;8.20;94.90;;;;;;5032267;28;20435;-75
2022/11/29 09:35:43;;;;;;;15.50;7.33;;;8.20;94.90;;;;;;5031482;28;20656;-74
2022/11/29 09:38:13;;;;;;;14.10;6.50;;;8.10;95.10;;;;;;5032863;28;20575;-73
2022/11/29 09:41:17;;;;;;;13.43;6.90;;;8.10;95.40;;;;;;5029552;28;20451;-73
2022/11/29 09:44:14;;;;;;;17.70;8.00;;;8.20;95.40;;;;;;5014520;28;20419;-75
2022/11/29 09:47:11;;;;;;;17.13;8.07;;;8.30;95.30;;;;;;5031757;28;20444;-75
2022/11/29 09:49:37;;;;;;;13.20;7.50;;;8.30;95.30;;;;;;5030006;28;20464;-75
2022/11/29 09:52:34;;;;;;;13.90;7.40;;;8.20;95.20;;;;;;5029100;28;20470;-74
2022/11/29 09:55:28;;;;;;;18.10;9.47;;;8.20;95.30;;;;;;5031212;28;20272;-74
2022/11/29 09:57:58;;;;;;;22.90;10.20;;;8.10;95.50;;;;;;5026380;28;20937;-75
2022/11/29 10:00:24;;;;;;;23.00;10.77;;;8.00;95.60;;;;;;5030048;28;20475;-75
2022/11/29 10:03:25;;;;;;;20.13;10.67;;;8.00;95.90;;;;;;5030733;28;20427;-74
2022/11/29 10:05:59;;;;;;;20.57;9.37;;;7.90;96.20;;;;;;5032210;28;20690;-75
2022/11/29 10:08:40;;;;;;;23.30;11.13;;;7.80;96.60;;;;;;5031467;28;20431;-72
2022/11/29 10:11:13;;;;;;;24.60;10.80;;;7.80;96.80;;;;;;5014617;28;20459;-74
2022/11/29 10:13:44;;;;;;;26.30;11.50;;;7.80;97.00;;;;;;5034655;28;20423;-73
2022/11/29 10:16:21;;;;;;;28.30;12.70;;;7.70;97.20;;;;;;5040541;28;20415;-74
2022/11/29 10:18:51;;;;;;;26.60;11.67;;;7.80;97.40;;;;;;5033928;28;20438;-75
2022/11/29 10:21:27;;;;;;;27.93;11.43;;;7.80;97.60;;;;;;5032042;28;20494;-72
2022/11/29 10:23:58;;;;;;;32.07;15.67;;;7.80;97.70;;;;;;5041616;28;20435;-75
2022/11/29 10:26:23;;;;;;;36.63;16.83;;;7.80;97.70;;;;;;5030784;28;20452;-74
2022/11/29 10:28:50;;;;;;;46.47;18.60;;;7.80;97.80;;;;;;5030323;28;20510;-74
2022/11/29 10:31:28;;;;;;;36.57;16.63;;;7.80;97.70;;;;;;5033896;28;20238;-75
2022/11/29 10:34:00;;;;;;;40.40;16.93;;;7.90;97.70;;;;;;5030128;28;20946;-75
2022/11/29 10:36:47;;;;;;;28.30;14.43;;;7.90;97.60;;;;;;5037068;28;20506;-75
2022/11/29 10:39:39;;;;;;;31.83;14.30;;;8.00;97.50;;;;;;5033855;28;20432;-74
2022/11/29 10:42:47;;;;;;;28.37;15.60;;;8.00;97.20;;;;;;5027328;28;20479;-74
2022/11/29 10:44:58;;;;;;;34.10;16.77;;;8.00;97.00;;;;;;5029040;28;20420;-75
2022/11/29 10:47:24;;;;;;;29.90;15.80;;;8.00;96.30;;;;;;5034206;28;20880;-73
2022/11/29 10:49:50;;;;;;;27.87;14.13;;;8.00;96.30;;;;;;5032684;28;20503;-75
2022/11/29 10:52:19;;;;;;;32.30;14.90;;;8.00;96.10;;;;;;5032955;28;20605;-74
2022/11/29 10:54:45;;;;;;;27.37;14.17;;;7.90;95.70;;;;;;5039743;28;20196;-74
2022/11/29 10:57:17;;;;;;;28.00;14.13;;;7.90;95.60;;;;;;5038255;28;20435;-73
2022/11/29 10:59:58;;;;;;;22.63;12.77;;;8.00;95.70;;;;;;5041883;28;20427;-73
2022/11/29 11:02:24;;;;;;;26.07;12.80;;;8.10;95.60;;;;;;5036759;28;20443;-75
2022/11/29 11:04:50;;;;;;;18.57;11.23;;;8.10;95.40;;;;;;5039477;28;20432;-72
2022/11/29 11:07:24;;;;;;;26.77;12.73;;;8.10;95.10;;;;;;5039008;28;20193;-74
2022/11/29 11:09:52;;;;;;;25.27;12.53;;;8.10;94.90;;;;;;5037721;28;20211;-75
2022/11/29 11:12:21;;;;;;;25.20;12.83;;;8.10;94.90;;;;;;5036611;28;20477;-74
2022/11/29 11:14:47;;;;;;;21.30;11.57;;;8.10;94.70;;;;;;5039312;28;20802;-74
2022/11/29 11:17:36;;;;;;;24.40;12.47;;;8.00;94.80;;;;;;5029461;28;20474;-73
2022/11/29 11:20:07;;;;;;;26.63;12.03;;;8.00;94.90;;;;;;5026970;28;20879;-72
2022/11/29 11:22:34;;;;;;;23.13;12.40;;;8.00;94.90;;;;;;5026165;28;20493;-75
2022/11/29 11:25:02;;;;;;;24.90;11.73;;;8.00;94.90;;;;;;5024100;28;20497;-73
2022/11/29 11:27:34;;;;;;;23.73;13.10;;;8.00;95.10;;;;;;5029218;28;20428;-74
2022/11/29 11:30:02;;;;;;;26.87;13.87;;;8.10;95.30;;;;;;5023233;28;20506;-74
2022/11/29 11:32:28;;;;;;;21.50;11.87;;;8.10;95.30;;;;;;5023943;28;20439;-73
2022/11/29 11:34:59;;;;;;;27.33;13.93;;;8.20;95.30;;;;;;5024107;28;20416;-73
2022/11/29 11:37:36;;;;;;;22.13;12.43;;;8.20;95.20;;;;;;5027834;28;20232;-75
2022/11/29 11:40:31;;;;;;;21.83;12.90;;;8.20;95.00;;;;;;5028241;28;20481;-75
2022/11/29 11:43:00;;;;;;;25.40;13.50;;;8.00;94.70;;;;;;5023145;28;20523;-73
2022/11/29 11:45:52;;;;;;;25.77;12.93;;;7.90;94.70;;;;;;5028444;28;20543;-74
2022/11/29 11:48:18;;;;;;;22.57;12.70;;;7.90;95.20;;;;;;5024879;28;20420;-73
2022/11/29 11:50:49;;;;;;;30.60;14.60;;;7.90;95.40;;;;;;5030807;28;20545;-73
2022/11/29 11:53:28;;;;;;;29.33;13.33;;;7.90;95.40;;;;;;5032194;28;20498;-72
2022/11/29 11:56:00;;;;;;;22.80;12.47;;;7.90;95.40;;;;;;5031124;28;20420;-73
2022/11/29 11:59:02;;;;;;;26.70;13.70;;;7.90;95.20;;;;;;5032511;28;20456;-73
2022/11/29 12:01:35;;;;;;;28.37;14.60;;;7.90;95.40;;;;;;5023341;28;20466;-73
2022/11/29 12:04:14;;;;;;;26.90;14.23;;;7.90;95.60;;;;;;5033482;28;20419;-73
2022/11/29 12:06:51;;;;;;;30.27;15.63;;;8.00;95.70;;;;;;5032984;28;20438;-74
2022/11/29 12:09:44;;;;;;;27.77;14.57;;;8.00;95.70;;;;;;5032152;28;20517;-72
2022/11/29 12:12:14;;;;;;;26.73;14.33;;;8.00;95.70;;;;;;5027105;28;20459;-74
2022/11/29 12:15:04;;;;;;;28.90;15.07;;;8.00;95.60;;;;;;5031636;28;20420;-72
2022/11/29 12:17:48;;;;;;;25.20;13.57;;;8.00;95.70;;;;;;5031917;28;21225;-74
2022/11/29 12:20:41;;;;;;;27.67;14.70;;;7.90;95.60;;;;;;5024830;28;20510;-73
2022/11/29 12:23:13;;;;;;;27.23;14.37;;;8.00;95.70;;;;;;5032016;28;20566;-74
2022/11/29 12:25:50;;;;;;;19.30;11.50;;;8.00;95.60;;;;;;5031597;28;20427;-73
2022/11/29 12:28:18;;;;;;;20.60;11.37;;;7.90;95.30;;;;;;5030239;28;20443;-72
2022/11/29 12:31:08;;;;;;;22.60;13.40;;;7.90;95.30;;;;;;5030422;28;20455;-74
2022/11/29 12:34:25;;;;;;;18.83;11.60;;;8.00;95.30;;;;;;5029206;28;20415;-74
2022/11/29 12:37:00;;;;;;;21.40;11.77;;;8.00;95.10;;;;;;4990743;28;20430;-73
2022/11/29 12:39:41;;;;;;;19.30;11.43;;;8.00;95.00;;;;;;4989831;28;20437;-74
2022/11/29 12:42:31;;;;;;;20.70;12.73;;;8.00;95.00;;;;;;4986491;28;20481;-72
2022/11/29 12:45:23;;;;;;;24.07;11.97;;;8.10;95.00;;;;;;4990292;28;20433;-74
2022/11/29 12:48:13;;;;;;;21.13;11.40;;;8.10;94.90;;;;;;4989248;28;20579;-72
2022/11/29 12:51:00;;;;;;;18.47;11.43;;;8.00;94.40;;;;;;4988201;28;20540;-75
2022/11/29 12:53:36;;;;;;;19.40;11.93;;;7.90;94.20;;;;;;4969794;28;20426;-72
2022/11/29 12:56:32;;;;;;;19.00;12.20;;;7.90;94.30;;;;;;4987616;28;20448;-72
2022/11/29 12:59:15;;;;;;;17.80;11.27;;;7.90;94.40;;;;;;4999681;28;20464;-72
2022/11/29 13:01:57;;;;;;;18.07;11.90;;;7.90;94.50;;;;;;4987047;28;20469;-74
2022/11/29 13:04:37;;;;;;;22.30;12.97;;;7.90;94.50;;;;;;4991513;28;20465;-72
2022/11/29 13:07:23;;;;;;;22.80;13.80;;;7.90;94.40;;;;;;5004998;28;20435;-72
2022/11/29 13:10:03;;;;;;;19.23;12.17;;;7.90;94.40;;;;;;5034045;28;20471;-73
2022/11/29 13:12:46;;;;;;;24.47;12.60;;;7.80;94.20;;;;;;5034437;28;20431;-72
2022/11/29 13:15:45;;;;;;;23.70;13.37;;;7.80;94.20;;;;;;5039186;28;20411;-73
2022/11/29 13:18:21;;;;;;;24.20;13.03;;;7.90;94.50;;;;;;5043445;28;20428;-73
2022/11/29 13:20:57;;;;;;;23.70;13.50;;;7.90;94.50;;;;;;5044424;28;20456;-73
2022/11/29 13:23:34;;;;;;;24.47;14.23;;;8.00;94.40;;;;;;5037697;28;20427;-72
2022/11/29 13:26:03;;;;;;;21.10;13.30;;;7.90;94.40;;;;;;5031763;28;21141;-73
2022/11/29 13:28:32;;;;;;;23.50;12.83;;;8.00;94.40;;;;;;5029860;28;20814;-74
2022/11/29 13:31:01;;;;;;;18.47;11.97;;;8.00;94.40;;;;;;5028419;28;20962;-72
2022/11/29 13:33:47;;;;;;;21.47;13.33;;;8.00;94.20;;;;;;5030602;28;20423;-73
2022/11/29 13:36:12;;;;;;;20.63;12.30;;;7.90;94.30;;;;;;5023941;28;20424;-73
2022/11/29 13:38:59;;;;;;;23.40;14.20;;;7.90;94.40;;;;;;5031369;28;20918;-75
2022/11/29 13:41:45;;;;;;;22.10;13.60;;;8.00;94.40;;;;;;5028565;28;20278;-73